sensor_id;sensor_type;location;lat;lon;timestamp;pressure;altitude;pressure_sealevel;temperature;humidity
43824;BME280;29470;53.550;9.926;2023-06-01T00:04:34;101777.47;;;14.61;77.99
43824;BME280;29470;53.550;9.926;2023-06-01T00:09:42;101783.91;;;14.54;78.88
43824;BME280;29470;53.550;9.926;2023-06-01T00:14:45;101780.69;;;14.45;77.99
43824;BME280;29470;53.550;9.926;2023-06-01T00:19:49;101783.97;;;14.42;78.32
43824;BME280;29470;53.550;9.926;2023-06-01T00:24:54;101778.78;;;14.31;79.42
43824;BME280;29470;53.550;9.926;2023-06-01T00:29:58;101782.41;;;14.33;79.31
43824;BME280;29470;53.550;9.926;2023-06-01T00:35:02;101781.94;;;14.13;79.08
43824;BME280;29470;53.550;9.926;2023-06-01T00:40:06;101773.72;;;14.57;77.52
43824;BME280;29470;53.550;9.926;2023-06-01T00:45:10;101784.56;;;14.38;77.52
43824;BME280;29470;53.550;9.926;2023-06-01T00:50:14;101780.25;;;14.39;77.05
43824;BME280;29470;53.550;9.926;2023-06-01T00:55:19;101775.09;;;14.15;77.74
43824;BME280;29470;53.550;9.926;2023-06-01T01:00:24;101770.50;;;14.11;78.17
43824;BME280;29470;53.550;9.926;2023-06-01T01:05:31;101763.63;;;14.37;76.39
43824;BME280;29470;53.550;9.926;2023-06-01T01:10:39;101762.56;;;14.47;74.90
43824;BME280;29470;53.550;9.926;2023-06-01T01:15:51;101765.13;;;14.70;74.40
43824;BME280;29470;53.550;9.926;2023-06-01T01:20:58;101767.19;;;14.51;74.85
43824;BME280;29470;53.550;9.926;2023-06-01T01:26:15;101764.91;;;14.30;76.07
43824;BME280;29470;53.550;9.926;2023-06-01T01:31:28;101759.03;;;14.21;76.18
43824;BME280;29470;53.550;9.926;2023-06-01T01:36:33;101760.59;;;14.31;75.76
43824;BME280;29470;53.550;9.926;2023-06-01T01:41:37;101757.88;;;14.29;75.51
43824;BME280;29470;53.550;9.926;2023-06-01T01:46:44;101752.31;;;14.36;73.58
43824;BME280;29470;53.550;9.926;2023-06-01T01:51:53;101749.28;;;14.55;73.36
43824;BME280;29470;53.550;9.926;2023-06-01T01:56:59;101753.56;;;14.29;73.82
43824;BME280;29470;53.550;9.926;2023-06-01T02:02:04;101748.06;;;14.50;72.72
43824;BME280;29470;53.550;9.926;2023-06-01T02:07:08;101743.59;;;14.36;73.27
43824;BME280;29470;53.550;9.926;2023-06-01T02:12:11;101737.97;;;14.55;71.47
43824;BME280;29470;53.550;9.926;2023-06-01T02:17:16;101735.69;;;14.09;72.38
43824;BME280;29470;53.550;9.926;2023-06-01T02:22:19;101730.50;;;14.22;73.00
43824;BME280;29470;53.550;9.926;2023-06-01T02:27:22;101731.50;;;14.11;74.27
43824;BME280;29470;53.550;9.926;2023-06-01T02:32:26;101729.63;;;14.47;73.20
43824;BME280;29470;53.550;9.926;2023-06-01T02:37:32;101728.84;;;14.23;73.55
43824;BME280;29470;53.550;9.926;2023-06-01T02:42:35;101722.25;;;14.03;75.81
43824;BME280;29470;53.550;9.926;2023-06-01T02:47:39;101721.59;;;14.44;72.94
43824;BME280;29470;53.550;9.926;2023-06-01T02:52:42;101710.41;;;14.20;73.23
43824;BME280;29470;53.550;9.926;2023-06-01T02:57:45;101714.88;;;14.09;74.47
43824;BME280;29470;53.550;9.926;2023-06-01T03:02:49;101710.53;;;13.84;74.81
43824;BME280;29470;53.550;9.926;2023-06-01T03:07:54;101713.84;;;14.07;74.04
43824;BME280;29470;53.550;9.926;2023-06-01T03:13:03;101710.13;;;14.28;72.65
43824;BME280;29470;53.550;9.926;2023-06-01T03:18:08;101713.06;;;14.08;72.44
43824;BME280;29470;53.550;9.926;2023-06-01T03:23:11;101705.66;;;14.14;71.91
43824;BME280;29470;53.550;9.926;2023-06-01T03:28:14;101697.50;;;14.47;71.13
43824;BME280;29470;53.550;9.926;2023-06-01T03:33:19;101698.88;;;14.16;71.82
43824;BME280;29470;53.550;9.926;2023-06-01T03:38:22;101701.69;;;14.19;71.53
43824;BME280;29470;53.550;9.926;2023-06-01T03:43:25;101698.56;;;14.62;70.03
43824;BME280;29470;53.550;9.926;2023-06-01T03:48:29;101698.94;;;14.29;70.98
43824;BME280;29470;53.550;9.926;2023-06-01T03:53:32;101692.75;;;14.41;70.24
43824;BME280;29470;53.550;9.926;2023-06-01T03:58:36;101684.97;;;14.41;70.66
43824;BME280;29470;53.550;9.926;2023-06-01T04:03:40;101700.28;;;14.36;69.87
43824;BME280;29470;53.550;9.926;2023-06-01T04:08:45;101681.56;;;14.42;70.61
43824;BME280;29470;53.550;9.926;2023-06-01T04:13:51;101681.50;;;14.54;69.89
43824;BME280;29470;53.550;9.926;2023-06-01T04:18:55;101690.88;;;14.38;70.39
43824;BME280;29470;53.550;9.926;2023-06-01T04:24:01;101680.53;;;14.65;70.37
43824;BME280;29470;53.550;9.926;2023-06-01T04:29:04;101678.09;;;14.80;68.88
43824;BME280;29470;53.550;9.926;2023-06-01T04:34:08;101670.59;;;14.85;67.92
43824;BME280;29470;53.550;9.926;2023-06-01T04:39:11;101680.38;;;14.50;69.91
43824;BME280;29470;53.550;9.926;2023-06-01T04:44:15;101675.00;;;14.86;68.55
43824;BME280;29470;53.550;9.926;2023-06-01T04:49:19;101675.03;;;14.99;68.20
43824;BME280;29470;53.550;9.926;2023-06-01T04:54:22;101662.28;;;15.04;67.94
43824;BME280;29470;53.550;9.926;2023-06-01T04:59:25;101666.09;;;14.96;68.41
43824;BME280;29470;53.550;9.926;2023-06-01T05:04:29;101651.47;;;14.98;68.54
43824;BME280;29470;53.550;9.926;2023-06-01T05:09:33;101654.34;;;15.16;68.81
43824;BME280;29470;53.550;9.926;2023-06-01T05:14:36;101643.03;;;15.29;67.55
43824;BME280;29470;53.550;9.926;2023-06-01T05:19:40;101643.81;;;14.74;69.85
43824;BME280;29470;53.550;9.926;2023-06-01T05:24:43;101646.84;;;14.80;69.87
43824;BME280;29470;53.550;9.926;2023-06-01T05:29:46;101643.84;;;15.41;68.18
43824;BME280;29470;53.550;9.926;2023-06-01T05:34:51;101643.63;;;15.52;67.35
43824;BME280;29470;53.550;9.926;2023-06-01T05:39:54;101647.84;;;14.96;68.71
43824;BME280;29470;53.550;9.926;2023-06-01T05:44:57;101645.84;;;15.05;68.39
43824;BME280;29470;53.550;9.926;2023-06-01T05:50:02;101637.72;;;15.14;67.65
43824;BME280;29470;53.550;9.926;2023-06-01T05:55:07;101640.53;;;15.30;66.49
43824;BME280;29470;53.550;9.926;2023-06-01T06:00:12;101638.03;;;15.19;66.14
43824;BME280;29470;53.550;9.926;2023-06-01T06:05:22;101637.78;;;15.56;64.67
43824;BME280;29470;53.550;9.926;2023-06-01T06:10:25;101641.44;;;15.17;65.54
43824;BME280;29470;53.550;9.926;2023-06-01T06:15:28;101643.16;;;15.72;65.37
43824;BME280;29470;53.550;9.926;2023-06-01T06:20:32;101643.41;;;15.62;65.94
43824;BME280;29470;53.550;9.926;2023-06-01T06:25:35;101644.59;;;15.67;65.62
43824;BME280;29470;53.550;9.926;2023-06-01T06:30:41;101640.28;;;15.54;65.72
43824;BME280;29470;53.550;9.926;2023-06-01T06:35:45;101643.44;;;15.90;64.72
43824;BME280;29470;53.550;9.926;2023-06-01T06:40:48;101645.06;;;15.88;63.89
43824;BME280;29470;53.550;9.926;2023-06-01T06:45:52;101633.00;;;15.77;64.64
43824;BME280;29470;53.550;9.926;2023-06-01T06:50:56;101636.19;;;16.00;64.42
43824;BME280;29470;53.550;9.926;2023-06-01T06:56:00;101628.63;;;16.04;63.98
43824;BME280;29470;53.550;9.926;2023-06-01T07:01:03;101630.59;;;15.94;64.66
43824;BME280;29470;53.550;9.926;2023-06-01T07:06:08;101642.16;;;15.70;65.52
43824;BME280;29470;53.550;9.926;2023-06-01T07:11:12;101640.63;;;16.16;64.05
43824;BME280;29470;53.550;9.926;2023-06-01T07:16:15;101634.19;;;16.39;63.50
43824;BME280;29470;53.550;9.926;2023-06-01T07:21:19;101635.28;;;16.58;62.21
43824;BME280;29470;53.550;9.926;2023-06-01T07:26:22;101641.47;;;16.45;63.68
43824;BME280;29470;53.550;9.926;2023-06-01T07:31:26;101637.00;;;16.14;65.12
43824;BME280;29470;53.550;9.926;2023-06-01T07:36:31;101637.31;;;16.18;64.45
43824;BME280;29470;53.550;9.926;2023-06-01T07:41:39;101641.34;;;16.28;62.93
43824;BME280;29470;53.550;9.926;2023-06-01T07:46:42;101641.84;;;16.08;64.06
43824;BME280;29470;53.550;9.926;2023-06-01T07:51:46;101642.91;;;16.25;62.22
43824;BME280;29470;53.550;9.926;2023-06-01T07:56:50;101638.88;;;16.45;61.50
43824;BME280;29470;53.550;9.926;2023-06-01T08:01:53;101638.59;;;16.55;60.61
43824;BME280;29470;53.550;9.926;2023-06-01T08:06:59;101637.59;;;17.45;58.07
43824;BME280;29470;53.550;9.926;2023-06-01T08:12:05;101633.81;;;16.78;59.90
43824;BME280;29470;53.550;9.926;2023-06-01T08:17:09;101639.34;;;16.98;60.16
43824;BME280;29470;53.550;9.926;2023-06-01T08:22:14;101626.53;;;16.87;60.65
43824;BME280;29470;53.550;9.926;2023-06-01T08:27:18;101633.44;;;17.17;59.24
43824;BME280;29470;53.550;9.926;2023-06-01T08:32:25;101638.13;;;17.07;60.30
43824;BME280;29470;53.550;9.926;2023-06-01T08:37:29;101629.84;;;17.15;59.65
43824;BME280;29470;53.550;9.926;2023-06-01T08:42:38;101634.34;;;17.49;58.50
43824;BME280;29470;53.550;9.926;2023-06-01T08:47:45;101632.06;;;17.55;57.84
43824;BME280;29470;53.550;9.926;2023-06-01T08:52:52;101628.84;;;16.83;61.21
43824;BME280;29470;53.550;9.926;2023-06-01T08:57:57;101632.47;;;17.46;59.22
43824;BME280;29470;53.550;9.926;2023-06-01T09:03:01;101634.84;;;17.58;58.92
43824;BME280;29470;53.550;9.926;2023-06-01T09:08:06;101641.84;;;17.43;59.75
43824;BME280;29470;53.550;9.926;2023-06-01T09:13:09;101628.50;;;16.91;58.96
43824;BME280;29470;53.550;9.926;2023-06-01T09:18:12;101631.34;;;17.26;57.90
43824;BME280;29470;53.550;9.926;2023-06-01T09:23:24;101639.84;;;17.70;54.97
43824;BME280;29470;53.550;9.926;2023-06-01T09:28:27;101626.84;;;18.54;52.15
43824;BME280;29470;53.550;9.926;2023-06-01T09:33:30;101621.75;;;18.94;50.86
43824;BME280;29470;53.550;9.926;2023-06-01T09:38:35;101621.50;;;19.24;49.98
43824;BME280;29470;53.550;9.926;2023-06-01T09:43:38;101615.28;;;18.51;51.09
43824;BME280;29470;53.550;9.926;2023-06-01T09:48:46;101624.13;;;18.18;52.14
43824;BME280;29470;53.550;9.926;2023-06-01T09:53:52;101608.03;;;18.45;52.22
43824;BME280;29470;53.550;9.926;2023-06-01T09:58:58;101606.13;;;19.32;49.50
43824;BME280;29470;53.550;9.926;2023-06-01T10:04:04;101603.78;;;18.47;52.76
43824;BME280;29470;53.550;9.926;2023-06-01T10:09:11;101606.97;;;18.42;52.49
43824;BME280;29470;53.550;9.926;2023-06-01T10:14:17;101606.78;;;18.20;53.45
43824;BME280;29470;53.550;9.926;2023-06-01T10:19:21;101597.00;;;18.87;51.61
43824;BME280;29470;53.550;9.926;2023-06-01T10:24:26;101592.22;;;18.62;51.75
43824;BME280;29470;53.550;9.926;2023-06-01T10:29:30;101585.59;;;18.50;53.00
43824;BME280;29470;53.550;9.926;2023-06-01T10:34:38;101593.50;;;18.34;53.02
43824;BME280;29470;53.550;9.926;2023-06-01T10:39:43;101599.91;;;19.49;51.13
43824;BME280;29470;53.550;9.926;2023-06-01T10:44:48;101604.09;;;19.26;49.29
43824;BME280;29470;53.550;9.926;2023-06-01T10:50:06;101595.59;;;18.41;50.43
43824;BME280;29470;53.550;9.926;2023-06-01T10:55:22;101591.56;;;19.01;49.38
43824;BME280;29470;53.550;9.926;2023-06-01T11:00:27;101607.91;;;19.70;47.30
43824;BME280;29470;53.550;9.926;2023-06-01T11:05:42;101588.97;;;19.78;46.57
43824;BME280;29470;53.550;9.926;2023-06-01T11:10:57;101590.69;;;19.57;48.17
43824;BME280;29470;53.550;9.926;2023-06-01T11:16:27;101586.31;;;19.01;49.12
43824;BME280;29470;53.550;9.926;2023-06-01T11:21:32;101585.28;;;19.54;49.04
43824;BME280;29470;53.550;9.926;2023-06-01T11:26:42;101580.78;;;19.32;50.24
43824;BME280;29470;53.550;9.926;2023-06-01T11:31:46;101584.75;;;19.42;48.48
43824;BME280;29470;53.550;9.926;2023-06-01T11:36:50;101590.69;;;19.57;48.22
43824;BME280;29470;53.550;9.926;2023-06-01T11:42:05;101574.34;;;20.02;47.04
43824;BME280;29470;53.550;9.926;2023-06-01T11:47:10;101574.66;;;19.51;46.97
43824;BME280;29470;53.550;9.926;2023-06-01T11:52:14;101572.69;;;20.05;46.63
43824;BME280;29470;53.550;9.926;2023-06-01T11:57:19;101583.75;;;20.17;47.08
43824;BME280;29470;53.550;9.926;2023-06-01T12:02:24;101579.44;;;19.60;48.65
43824;BME280;29470;53.550;9.926;2023-06-01T12:07:28;101580.28;;;19.03;50.44
43824;BME280;29470;53.550;9.926;2023-06-01T12:12:32;101568.84;;;19.01;49.49
43824;BME280;29470;53.550;9.926;2023-06-01T12:17:47;101571.31;;;17.94;52.71
43824;BME280;29470;53.550;9.926;2023-06-01T12:22:54;101561.38;;;18.03;52.22
43824;BME280;29470;53.550;9.926;2023-06-01T12:28:03;101569.94;;;18.88;49.95
43824;BME280;29470;53.550;9.926;2023-06-01T12:33:07;101564.47;;;18.47;51.38
43824;BME280;29470;53.550;9.926;2023-06-01T12:38:10;101558.25;;;18.81;51.40
43824;BME280;29470;53.550;9.926;2023-06-01T12:43:18;101554.06;;;20.20;48.52
43824;BME280;29470;53.550;9.926;2023-06-01T12:48:31;101551.28;;;19.95;47.93
43824;BME280;29470;53.550;9.926;2023-06-01T12:53:35;101560.53;;;20.07;48.34
43824;BME280;29470;53.550;9.926;2023-06-01T12:58:45;101559.63;;;19.09;48.73
43824;BME280;29470;53.550;9.926;2023-06-01T13:03:48;101553.25;;;19.22;49.28
43824;BME280;29470;53.550;9.926;2023-06-01T13:08:53;101551.97;;;18.96;49.37
43824;BME280;29470;53.550;9.926;2023-06-01T13:13:58;101553.91;;;18.46;51.23
43824;BME280;29470;53.550;9.926;2023-06-01T13:19:01;101544.56;;;18.87;50.29
43824;BME280;29470;53.550;9.926;2023-06-01T13:24:06;101554.59;;;19.14;48.47
43824;BME280;29470;53.550;9.926;2023-06-01T13:29:11;101542.84;;;19.83;47.30
43824;BME280;29470;53.550;9.926;2023-06-01T13:34:14;101544.31;;;19.19;48.30
43824;BME280;29470;53.550;9.926;2023-06-01T13:39:22;101534.41;;;19.51;48.36
43824;BME280;29470;53.550;9.926;2023-06-01T13:44:27;101534.00;;;18.67;50.31
43824;BME280;29470;53.550;9.926;2023-06-01T13:49:30;101532.06;;;18.63;50.62
43824;BME280;29470;53.550;9.926;2023-06-01T13:54:33;101539.75;;;19.14;49.43
43824;BME280;29470;53.550;9.926;2023-06-01T13:59:37;101532.22;;;18.66;50.00
43824;BME280;29470;53.550;9.926;2023-06-01T14:04:40;101526.66;;;18.24;51.02
43824;BME280;29470;53.550;9.926;2023-06-01T14:09:43;101528.72;;;18.13;51.19
43824;BME280;29470;53.550;9.926;2023-06-01T14:14:48;101527.97;;;18.50;49.94
43824;BME280;29470;53.550;9.926;2023-06-01T14:19:50;101522.97;;;18.93;49.27
43824;BME280;29470;53.550;9.926;2023-06-01T14:24:54;101513.06;;;18.49;49.46
43824;BME280;29470;53.550;9.926;2023-06-01T14:29:58;101514.25;;;18.38;49.98
43824;BME280;29470;53.550;9.926;2023-06-01T14:35:02;101509.66;;;18.70;50.37
43824;BME280;29470;53.550;9.926;2023-06-01T14:40:07;101510.84;;;19.52;48.11
43824;BME280;29470;53.550;9.926;2023-06-01T14:45:12;101515.78;;;19.45;46.44
43824;BME280;29470;53.550;9.926;2023-06-01T14:50:15;101515.56;;;19.20;48.24
43824;BME280;29470;53.550;9.926;2023-06-01T14:55:19;101510.34;;;19.02;48.09
43824;BME280;29470;53.550;9.926;2023-06-01T15:00:23;101514.84;;;19.05;47.96
43824;BME280;29470;53.550;9.926;2023-06-01T15:05:27;101519.47;;;18.92;48.93
43824;BME280;29470;53.550;9.926;2023-06-01T15:10:30;101503.31;;;18.29;49.28
43824;BME280;29470;53.550;9.926;2023-06-01T15:15:34;101510.06;;;18.23;49.32
43824;BME280;29470;53.550;9.926;2023-06-01T15:20:37;101510.88;;;19.13;47.99
43824;BME280;29470;53.550;9.926;2023-06-01T15:25:40;101512.03;;;19.39;47.40
43824;BME280;29470;53.550;9.926;2023-06-01T15:30:44;101508.69;;;19.04;47.89
43824;BME280;29470;53.550;9.926;2023-06-01T15:35:47;101518.44;;;18.34;49.23
43824;BME280;29470;53.550;9.926;2023-06-01T15:40:50;101512.56;;;18.22;49.61
43824;BME280;29470;53.550;9.926;2023-06-01T15:45:54;101511.28;;;18.14;49.50
43824;BME280;29470;53.550;9.926;2023-06-01T15:50:57;101506.25;;;17.84;49.81
43824;BME280;29470;53.550;9.926;2023-06-01T15:56:01;101498.41;;;18.00;50.03
43824;BME280;29470;53.550;9.926;2023-06-01T16:01:06;101498.72;;;17.73;50.29
43824;BME280;29470;53.550;9.926;2023-06-01T16:06:27;101499.88;;;17.78;50.83
43824;BME280;29470;53.550;9.926;2023-06-01T16:12:02;101485.97;;;17.79;50.73
43824;BME280;29470;53.550;9.926;2023-06-01T16:17:06;101490.28;;;18.12;50.20
43824;BME280;29470;53.550;9.926;2023-06-01T16:22:18;101495.88;;;17.85;50.34
43824;BME280;29470;53.550;9.926;2023-06-01T16:27:21;101478.31;;;18.17;49.25
43824;BME280;29470;53.550;9.926;2023-06-01T16:32:26;101481.69;;;17.63;49.99
43824;BME280;29470;53.550;9.926;2023-06-01T16:37:31;101486.84;;;17.62;50.03
43824;BME280;29470;53.550;9.926;2023-06-01T16:42:34;101497.63;;;17.51;50.27
43824;BME280;29470;53.550;9.926;2023-06-01T16:47:39;101479.66;;;17.58;50.13
43824;BME280;29470;53.550;9.926;2023-06-01T16:52:42;101485.53;;;17.37;51.11
43824;BME280;29470;53.550;9.926;2023-06-01T16:57:45;101483.94;;;17.74;50.10
43824;BME280;29470;53.550;9.926;2023-06-01T17:02:49;101485.59;;;17.55;50.25
43824;BME280;29470;53.550;9.926;2023-06-01T17:07:52;101485.03;;;17.28;50.96
43824;BME280;29470;53.550;9.926;2023-06-01T17:12:55;101481.94;;;17.18;51.75
43824;BME280;29470;53.550;9.926;2023-06-01T17:18:00;101479.41;;;17.36;50.54
43824;BME280;29470;53.550;9.926;2023-06-01T17:23:03;101492.38;;;17.02;51.44
43824;BME280;29470;53.550;9.926;2023-06-01T17:28:06;101486.72;;;16.79;51.12
43824;BME280;29470;53.550;9.926;2023-06-01T17:33:10;101478.72;;;16.76;51.73
43824;BME280;29470;53.550;9.926;2023-06-01T17:38:14;101475.19;;;16.44;52.98
43824;BME280;29470;53.550;9.926;2023-06-01T17:43:16;101477.22;;;16.64;52.65
43824;BME280;29470;53.550;9.926;2023-06-01T17:48:21;101491.19;;;16.65;51.54
43824;BME280;29470;53.550;9.926;2023-06-01T17:53:24;101477.78;;;16.44;52.45
43824;BME280;29470;53.550;9.926;2023-06-01T17:58:42;101468.59;;;15.89;54.39
43824;BME280;29470;53.550;9.926;2023-06-01T18:03:47;101461.38;;;16.00;53.36
43824;BME280;29470;53.550;9.926;2023-06-01T18:08:50;101460.63;;;16.02;53.49
43824;BME280;29470;53.550;9.926;2023-06-01T18:13:53;101469.63;;;16.08;53.28
43824;BME280;29470;53.550;9.926;2023-06-01T18:18:58;101459.66;;;16.00;52.96
43824;BME280;29470;53.550;9.926;2023-06-01T18:24:01;101454.22;;;15.67;54.73
43824;BME280;29470;53.550;9.926;2023-06-01T18:29:04;101449.66;;;15.93;54.11
43824;BME280;29470;53.550;9.926;2023-06-01T18:34:09;101448.03;;;15.95;54.11
43824;BME280;29470;53.550;9.926;2023-06-01T18:39:12;101444.41;;;15.63;54.23
43824;BME280;29470;53.550;9.926;2023-06-01T18:44:16;101460.13;;;15.50;55.81
43824;BME280;29470;53.550;9.926;2023-06-01T18:49:20;101461.88;;;15.36;55.74
43824;BME280;29470;53.550;9.926;2023-06-01T18:54:23;101463.47;;;15.19;56.08
43824;BME280;29470;53.550;9.926;2023-06-01T18:59:28;101475.44;;;15.30;56.04
43824;BME280;29470;53.550;9.926;2023-06-01T19:04:33;101477.81;;;15.40;56.48
43824;BME280;29470;53.550;9.926;2023-06-01T19:09:37;101477.47;;;15.49;56.82
43824;BME280;29470;53.550;9.926;2023-06-01T19:14:41;101485.13;;;15.04;57.38
43824;BME280;29470;53.550;9.926;2023-06-01T19:19:46;101479.75;;;14.87;57.54
43824;BME280;29470;53.550;9.926;2023-06-01T19:24:52;101480.47;;;14.98;57.20
43824;BME280;29470;53.550;9.926;2023-06-01T19:29:54;101489.56;;;14.92;57.90
43824;BME280;29470;53.550;9.926;2023-06-01T19:35:01;101484.19;;;14.75;58.77
43824;BME280;29470;53.550;9.926;2023-06-01T19:40:09;101478.97;;;14.75;58.98
43824;BME280;29470;53.550;9.926;2023-06-01T19:45:16;101490.47;;;14.65;60.02
43824;BME280;29470;53.550;9.926;2023-06-01T19:50:40;101499.69;;;14.33;61.68
43824;BME280;29470;53.550;9.926;2023-06-01T19:55:44;101500.19;;;14.41;61.96
43824;BME280;29470;53.550;9.926;2023-06-01T20:00:47;101496.88;;;14.17;63.31
43824;BME280;29470;53.550;9.926;2023-06-01T20:05:53;101504.56;;;14.42;61.55
43824;BME280;29470;53.550;9.926;2023-06-01T20:10:56;101496.75;;;14.28;62.53
43824;BME280;29470;53.550;9.926;2023-06-01T20:15:58;101508.78;;;14.53;61.93
43824;BME280;29470;53.550;9.926;2023-06-01T20:21:04;101504.75;;;14.05;63.45
43824;BME280;29470;53.550;9.926;2023-06-01T20:26:08;101502.47;;;14.23;64.07
43824;BME280;29470;53.550;9.926;2023-06-01T20:31:12;101498.53;;;14.16;63.11
43824;BME280;29470;53.550;9.926;2023-06-01T20:36:25;101498.09;;;14.49;63.23
43824;BME280;29470;53.550;9.926;2023-06-01T20:41:29;101499.66;;;14.20;64.32
43824;BME280;29470;53.550;9.926;2023-06-01T20:46:33;101501.25;;;14.04;64.50
43824;BME280;29470;53.550;9.926;2023-06-01T20:51:39;101504.56;;;14.28;63.85
43824;BME280;29470;53.550;9.926;2023-06-01T20:56:43;101498.72;;;14.71;62.38
43824;BME280;29470;53.550;9.926;2023-06-01T21:01:48;101496.50;;;14.37;64.52
43824;BME280;29470;53.550;9.926;2023-06-01T21:06:53;101494.25;;;14.17;65.24
43824;BME280;29470;53.550;9.926;2023-06-01T21:11:56;101487.88;;;14.38;64.89
43824;BME280;29470;53.550;9.926;2023-06-01T21:16:59;101495.53;;;13.96;66.18
43824;BME280;29470;53.550;9.926;2023-06-01T21:22:05;101494.97;;;14.27;65.55
43824;BME280;29470;53.550;9.926;2023-06-01T21:27:08;101497.94;;;14.20;65.38
43824;BME280;29470;53.550;9.926;2023-06-01T21:32:11;101496.38;;;14.36;65.30
43824;BME280;29470;53.550;9.926;2023-06-01T21:37:16;101496.44;;;14.10;66.66
43824;BME280;29470;53.550;9.926;2023-06-01T21:42:19;101500.06;;;13.74;67.77
43824;BME280;29470;53.550;9.926;2023-06-01T21:47:23;101498.13;;;13.96;68.19
43824;BME280;29470;53.550;9.926;2023-06-01T21:52:28;101506.06;;;13.35;71.17
43824;BME280;29470;53.550;9.926;2023-06-01T21:57:31;101505.59;;;13.41;71.57
43824;BME280;29470;53.550;9.926;2023-06-01T22:02:35;101504.72;;;13.66;70.94
43824;BME280;29470;53.550;9.926;2023-06-01T22:07:43;101503.03;;;13.66;71.10
43824;BME280;29470;53.550;9.926;2023-06-01T22:12:46;101508.16;;;13.78;71.54
43824;BME280;29470;53.550;9.926;2023-06-01T22:17:49;101507.44;;;13.67;71.72
43824;BME280;29470;53.550;9.926;2023-06-01T22:22:54;101505.19;;;13.85;71.82
43824;BME280;29470;53.550;9.926;2023-06-01T22:27:57;101511.63;;;13.65;71.98
43824;BME280;29470;53.550;9.926;2023-06-01T22:33:00;101505.53;;;13.90;72.35
43824;BME280;29470;53.550;9.926;2023-06-01T22:38:06;101501.75;;;13.98;72.30
43824;BME280;29470;53.550;9.926;2023-06-01T22:43:10;101505.59;;;13.92;72.37
43824;BME280;29470;53.550;9.926;2023-06-01T22:48:14;101503.13;;;13.93;72.96
43824;BME280;29470;53.550;9.926;2023-06-01T22:53:19;101498.56;;;14.03;72.90
43824;BME280;29470;53.550;9.926;2023-06-01T22:58:25;101497.56;;;13.75;73.94
43824;BME280;29470;53.550;9.926;2023-06-01T23:03:29;101497.44;;;13.99;73.62
43824;BME280;29470;53.550;9.926;2023-06-01T23:08:34;101501.94;;;14.02;73.18
43824;BME280;29470;53.550;9.926;2023-06-01T23:13:38;101502.84;;;14.02;73.96
43824;BME280;29470;53.550;9.926;2023-06-01T23:18:43;101513.00;;;13.60;75.82
43824;BME280;29470;53.550;9.926;2023-06-01T23:23:51;101522.47;;;13.72;76.25
43824;BME280;29470;53.550;9.926;2023-06-01T23:28:56;101514.50;;;13.82;77.15
43824;BME280;29470;53.550;9.926;2023-06-01T23:34:00;101515.06;;;13.52;78.01
43824;BME280;29470;53.550;9.926;2023-06-01T23:39:07;101510.22;;;13.57;78.01
43824;BME280;29470;53.550;9.926;2023-06-01T23:44:10;101509.69;;;13.37;79.63
43824;BME280;29470;53.550;9.926;2023-06-01T23:49:13;101508.81;;;13.62;78.49
43824;BME280;29470;53.550;9.926;2023-06-01T23:54:18;101501.13;;;13.64;78.46
43824;BME280;29470;53.550;9.926;2023-06-01T23:59:20;101495.47;;;13.32;80.66
